sensor_id;sensor_type;location;lat;lon;timestamp;P1;durP1;ratioP1;P2;durP2;ratioP2
11865;SDS011;5992;52.744;6.898;2023-04-01T00:01:02;2.45;;;1.80;;
11865;SDS011;5992;52.744;6.898;2023-04-01T00:04:27;2.33;;;1.60;;
11865;SDS011;5992;52.744;6.898;2023-04-01T00:07:27;1.60;;;1.50;;
11865;SDS011;5992;52.744;6.898;2023-04-01T00:10:39;1.63;;;1.53;;
11865;SDS011;5992;52.744;6.898;2023-04-01T00:13:39;2.80;;;1.30;;
11865;SDS011;5992;52.744;6.898;2023-04-01T00:17:06;1.60;;;1.50;;
11865;SDS011;5992;52.744;6.898;2023-04-01T00:20:18;1.40;;;1.30;;
11865;SDS011;5992;52.744;6.898;2023-04-01T00:23:31;2.25;;;1.30;;
11865;SDS011;5992;52.744;6.898;2023-04-01T00:26:31;1.35;;;1.20;;
11865;SDS011;5992;52.744;6.898;2023-04-01T00:29:44;2.50;;;1.40;;
11865;SDS011;5992;52.744;6.898;2023-04-01T00:32:58;1.55;;;1.10;;
11865;SDS011;5992;52.744;6.898;2023-04-01T00:36:21;3.73;;;1.50;;
11865;SDS011;5992;52.744;6.898;2023-04-01T00:39:21;1.80;;;1.57;;
11865;SDS011;5992;52.744;6.898;2023-04-01T00:42:34;1.10;;;1.10;;
11865;SDS011;5992;52.744;6.898;2023-04-01T00:45:35;2.00;;;1.30;;
11865;SDS011;5992;52.744;6.898;2023-04-01T00:49:00;2.05;;;1.70;;
11865;SDS011;5992;52.744;6.898;2023-04-01T00:52:13;1.73;;;1.60;;
11865;SDS011;5992;52.744;6.898;2023-04-01T00:55:37;1.23;;;1.23;;
11865;SDS011;5992;52.744;6.898;2023-04-01T00:58:49;1.83;;;1.23;;
11865;SDS011;5992;52.744;6.898;2023-04-01T01:02:13;1.70;;;1.10;;
11865;SDS011;5992;52.744;6.898;2023-04-01T01:05:46;1.97;;;1.30;;
11865;SDS011;5992;52.744;6.898;2023-04-01T01:09:11;1.55;;;1.25;;
11865;SDS011;5992;52.744;6.898;2023-04-01T01:12:25;1.00;;;1.00;;
11865;SDS011;5992;52.744;6.898;2023-04-01T01:15:49;1.60;;;1.50;;
11865;SDS011;5992;52.744;6.898;2023-04-01T01:19:06;1.60;;;1.50;;
11865;SDS011;5992;52.744;6.898;2023-04-01T01:22:36;1.30;;;1.20;;
11865;SDS011;5992;52.744;6.898;2023-04-01T01:25:59;1.36;;;1.26;;
11865;SDS011;5992;52.744;6.898;2023-04-01T01:32:51;1.20;;;1.20;;
11865;SDS011;5992;52.744;6.898;2023-04-01T01:36:19;1.13;;;1.10;;
11865;SDS011;5992;52.744;6.898;2023-04-01T01:39:46;2.10;;;1.20;;
11865;SDS011;5992;52.744;6.898;2023-04-01T01:43:10;1.47;;;1.20;;
11865;SDS011;5992;52.744;6.898;2023-04-01T01:46:34;3.20;;;1.20;;
11865;SDS011;5992;52.744;6.898;2023-04-01T01:49:59;1.30;;;1.10;;
11865;SDS011;5992;52.744;6.898;2023-04-01T01:53:27;1.47;;;1.37;;
11865;SDS011;5992;52.744;6.898;2023-04-01T01:56:58;2.00;;;1.30;;
11865;SDS011;5992;52.744;6.898;2023-04-01T02:00:20;1.35;;;1.15;;
11865;SDS011;5992;52.744;6.898;2023-04-01T02:03:44;1.20;;;1.20;;
11865;SDS011;5992;52.744;6.898;2023-04-01T02:06:58;3.50;;;1.33;;
11865;SDS011;5992;52.744;6.898;2023-04-01T02:10:25;1.25;;;1.15;;
11865;SDS011;5992;52.744;6.898;2023-04-01T02:13:50;1.50;;;1.40;;
11865;SDS011;5992;52.744;6.898;2023-04-01T02:17:17;2.20;;;1.57;;
11865;SDS011;5992;52.744;6.898;2023-04-01T02:20:29;1.65;;;1.50;;
11865;SDS011;5992;52.744;6.898;2023-04-01T02:23:53;1.43;;;1.30;;
11865;SDS011;5992;52.744;6.898;2023-04-01T02:27:06;1.70;;;1.30;;
11865;SDS011;5992;52.744;6.898;2023-04-01T02:30:31;1.40;;;1.30;;
11865;SDS011;5992;52.744;6.898;2023-04-01T02:33:55;1.10;;;1.10;;
11865;SDS011;5992;52.744;6.898;2023-04-01T02:37:07;3.00;;;1.70;;
11865;SDS011;5992;52.744;6.898;2023-04-01T02:40:40;1.70;;;1.60;;
11865;SDS011;5992;52.744;6.898;2023-04-01T02:43:53;1.43;;;1.37;;
11865;SDS011;5992;52.744;6.898;2023-04-01T02:47:18;1.07;;;1.07;;
11865;SDS011;5992;52.744;6.898;2023-04-01T02:50:30;1.80;;;1.70;;
11865;SDS011;5992;52.744;6.898;2023-04-01T02:53:42;2.17;;;1.60;;
11865;SDS011;5992;52.744;6.898;2023-04-01T02:56:54;1.50;;;1.40;;
11865;SDS011;5992;52.744;6.898;2023-04-01T03:00:09;1.40;;;1.30;;
11865;SDS011;5992;52.744;6.898;2023-04-01T03:03:22;1.67;;;1.57;;
11865;SDS011;5992;52.744;6.898;2023-04-01T03:06:34;1.50;;;1.40;;
11865;SDS011;5992;52.744;6.898;2023-04-01T03:09:34;1.50;;;1.40;;
11865;SDS011;5992;52.744;6.898;2023-04-01T03:12:46;1.83;;;1.73;;
11865;SDS011;5992;52.744;6.898;2023-04-01T03:16:11;1.70;;;1.60;;
11865;SDS011;5992;52.744;6.898;2023-04-01T03:19:37;1.60;;;1.50;;
11865;SDS011;5992;52.744;6.898;2023-04-01T03:22:37;1.60;;;1.50;;
11865;SDS011;5992;52.744;6.898;2023-04-01T03:26:04;1.70;;;1.60;;
11865;SDS011;5992;52.744;6.898;2023-04-01T03:29:16;1.30;;;1.30;;
11865;SDS011;5992;52.744;6.898;2023-04-01T03:32:32;1.40;;;1.30;;
11865;SDS011;5992;52.744;6.898;2023-04-01T03:35:48;1.53;;;1.43;;
11865;SDS011;5992;52.744;6.898;2023-04-01T03:39:04;1.70;;;1.60;;
11865;SDS011;5992;52.744;6.898;2023-04-01T03:42:17;1.63;;;1.53;;
11865;SDS011;5992;52.744;6.898;2023-04-01T03:45:45;1.20;;;1.10;;
11865;SDS011;5992;52.744;6.898;2023-04-01T03:48:58;2.20;;;1.57;;
11865;SDS011;5992;52.744;6.898;2023-04-01T03:52:23;4.37;;;1.60;;
11865;SDS011;5992;52.744;6.898;2023-04-01T03:55:35;2.03;;;1.47;;
11865;SDS011;5992;52.744;6.898;2023-04-01T03:59:01;1.10;;;1.10;;
11865;SDS011;5992;52.744;6.898;2023-04-01T04:02:25;1.60;;;1.50;;
11865;SDS011;5992;52.744;6.898;2023-04-01T04:05:46;2.10;;;1.90;;
11865;SDS011;5992;52.744;6.898;2023-04-01T04:09:10;1.50;;;1.40;;
11865;SDS011;5992;52.744;6.898;2023-04-01T04:12:22;2.25;;;1.50;;
11865;SDS011;5992;52.744;6.898;2023-04-01T04:15:34;1.95;;;1.45;;
11865;SDS011;5992;52.744;6.898;2023-04-01T04:18:47;1.45;;;1.40;;
11865;SDS011;5992;52.744;6.898;2023-04-01T04:22:00;1.77;;;1.67;;
11865;SDS011;5992;52.744;6.898;2023-04-01T04:25:26;1.70;;;1.43;;
11865;SDS011;5992;52.744;6.898;2023-04-01T04:28:26;1.30;;;1.30;;
11865;SDS011;5992;52.744;6.898;2023-04-01T04:31:51;1.40;;;1.40;;
11865;SDS011;5992;52.744;6.898;2023-04-01T04:35:03;1.50;;;1.40;;
11865;SDS011;5992;52.744;6.898;2023-04-01T04:38:20;1.57;;;1.00;;
11865;SDS011;5992;52.744;6.898;2023-04-01T04:41:47;2.37;;;1.37;;
11865;SDS011;5992;52.744;6.898;2023-04-01T04:44:59;1.23;;;1.13;;
11865;SDS011;5992;52.744;6.898;2023-04-01T04:48:12;1.67;;;1.57;;
11865;SDS011;5992;52.744;6.898;2023-04-01T04:51:35;1.77;;;1.67;;
11865;SDS011;5992;52.744;6.898;2023-04-01T04:54:48;1.93;;;1.70;;
11865;SDS011;5992;52.744;6.898;2023-04-01T04:58:17;1.87;;;1.77;;
11865;SDS011;5992;52.744;6.898;2023-04-01T05:01:41;1.40;;;1.30;;
11865;SDS011;5992;52.744;6.898;2023-04-01T05:04:53;2.10;;;1.47;;
11865;SDS011;5992;52.744;6.898;2023-04-01T05:08:06;1.60;;;1.50;;
11865;SDS011;5992;52.744;6.898;2023-04-01T05:11:34;1.30;;;1.30;;
11865;SDS011;5992;52.744;6.898;2023-04-01T05:14:59;3.43;;;1.77;;
11865;SDS011;5992;52.744;6.898;2023-04-01T05:18:12;1.70;;;1.60;;
11865;SDS011;5992;52.744;6.898;2023-04-01T05:21:25;1.40;;;1.30;;
11865;SDS011;5992;52.744;6.898;2023-04-01T05:24:40;5.20;;;1.80;;
11865;SDS011;5992;52.744;6.898;2023-04-01T05:27:54;1.80;;;1.70;;
11865;SDS011;5992;52.744;6.898;2023-04-01T05:31:21;1.80;;;1.70;;
11865;SDS011;5992;52.744;6.898;2023-04-01T05:34:21;2.17;;;2.03;;
11865;SDS011;5992;52.744;6.898;2023-04-01T05:37:34;2.10;;;2.00;;
11865;SDS011;5992;52.744;6.898;2023-04-01T05:40:58;2.30;;;2.10;;
11865;SDS011;5992;52.744;6.898;2023-04-01T05:44:25;4.33;;;3.93;;
11865;SDS011;5992;52.744;6.898;2023-04-01T05:47:49;2.40;;;2.30;;
11865;SDS011;5992;52.744;6.898;2023-04-01T05:51:03;3.40;;;3.13;;
11865;SDS011;5992;52.744;6.898;2023-04-01T05:54:26;5.03;;;4.23;;
11865;SDS011;5992;52.744;6.898;2023-04-01T05:57:38;4.87;;;4.47;;
11865;SDS011;5992;52.744;6.898;2023-04-01T06:00:52;3.80;;;3.50;;
11865;SDS011;5992;52.744;6.898;2023-04-01T06:04:17;4.00;;;3.70;;
11865;SDS011;5992;52.744;6.898;2023-04-01T06:07:31;4.80;;;4.00;;
11865;SDS011;5992;52.744;6.898;2023-04-01T06:14:19;4.63;;;4.23;;
11865;SDS011;5992;52.744;6.898;2023-04-01T06:17:55;3.95;;;3.65;;
11865;SDS011;5992;52.744;6.898;2023-04-01T06:21:07;5.03;;;4.30;;
11865;SDS011;5992;52.744;6.898;2023-04-01T06:24:36;3.70;;;3.40;;
11865;SDS011;5992;52.744;6.898;2023-04-01T06:28:07;4.40;;;3.50;;
11865;SDS011;5992;52.744;6.898;2023-04-01T06:31:34;4.90;;;4.50;;
11865;SDS011;5992;52.744;6.898;2023-04-01T06:35:11;6.07;;;5.50;;
11865;SDS011;5992;52.744;6.898;2023-04-01T06:38:37;4.63;;;4.27;;
11865;SDS011;5992;52.744;6.898;2023-04-01T06:41:58;6.00;;;5.50;;
11865;SDS011;5992;52.744;6.898;2023-04-01T06:45:27;7.17;;;5.73;;
11865;SDS011;5992;52.744;6.898;2023-04-01T06:49:01;5.60;;;5.10;;
11865;SDS011;5992;52.744;6.898;2023-04-01T06:52:26;6.03;;;5.37;;
11865;SDS011;5992;52.744;6.898;2023-04-01T06:55:51;6.20;;;5.10;;
11865;SDS011;5992;52.744;6.898;2023-04-01T06:59:16;5.50;;;5.00;;
11865;SDS011;5992;52.744;6.898;2023-04-01T07:02:29;6.30;;;5.70;;
11865;SDS011;5992;52.744;6.898;2023-04-01T07:05:52;6.20;;;5.57;;
11865;SDS011;5992;52.744;6.898;2023-04-01T07:09:19;6.60;;;5.87;;
11865;SDS011;5992;52.744;6.898;2023-04-01T07:12:46;5.83;;;5.33;;
11865;SDS011;5992;52.744;6.898;2023-04-01T07:16:12;6.13;;;5.47;;
11865;SDS011;5992;52.744;6.898;2023-04-01T07:19:36;5.97;;;5.37;;
11865;SDS011;5992;52.744;6.898;2023-04-01T07:23:00;6.33;;;5.73;;
11865;SDS011;5992;52.744;6.898;2023-04-01T07:26:29;6.37;;;5.77;;
11865;SDS011;5992;52.744;6.898;2023-04-01T07:29:55;5.97;;;5.40;;
11865;SDS011;5992;52.744;6.898;2023-04-01T07:33:22;6.95;;;6.15;;
11865;SDS011;5992;52.744;6.898;2023-04-01T07:36:47;7.13;;;6.43;;
11865;SDS011;5992;52.744;6.898;2023-04-01T07:40:13;8.55;;;7.40;;
11865;SDS011;5992;52.744;6.898;2023-04-01T07:43:43;8.70;;;6.67;;
11865;SDS011;5992;52.744;6.898;2023-04-01T07:47:14;11.15;;;7.30;;
11865;SDS011;5992;52.744;6.898;2023-04-01T07:50:37;7.67;;;6.40;;
11865;SDS011;5992;52.744;6.898;2023-04-01T07:54:02;9.85;;;6.70;;
11865;SDS011;5992;52.744;6.898;2023-04-01T07:57:27;7.70;;;6.85;;
11865;SDS011;5992;52.744;6.898;2023-04-01T08:00:55;8.37;;;7.30;;
11865;SDS011;5992;52.744;6.898;2023-04-01T08:04:22;8.05;;;6.95;;
11865;SDS011;5992;52.744;6.898;2023-04-01T08:07:37;8.40;;;7.13;;
11865;SDS011;5992;52.744;6.898;2023-04-01T08:11:08;7.10;;;6.40;;
11865;SDS011;5992;52.744;6.898;2023-04-01T08:14:36;8.25;;;7.45;;
11865;SDS011;5992;52.744;6.898;2023-04-01T08:18:09;6.70;;;6.00;;
11865;SDS011;5992;52.744;6.898;2023-04-01T08:21:35;6.90;;;5.30;;
11865;SDS011;5992;52.744;6.898;2023-04-01T08:24:57;6.93;;;5.90;;
11865;SDS011;5992;52.744;6.898;2023-04-01T08:28:23;5.60;;;5.10;;
11865;SDS011;5992;52.744;6.898;2023-04-01T08:31:48;6.07;;;5.00;;
11865;SDS011;5992;52.744;6.898;2023-04-01T08:35:06;4.90;;;4.50;;
11865;SDS011;5992;52.744;6.898;2023-04-01T08:38:27;5.15;;;4.05;;
11865;SDS011;5992;52.744;6.898;2023-04-01T08:42:01;4.05;;;3.65;;
11865;SDS011;5992;52.744;6.898;2023-04-01T08:45:27;4.20;;;3.80;;
11865;SDS011;5992;52.744;6.898;2023-04-01T08:48:57;4.37;;;3.47;;
11865;SDS011;5992;52.744;6.898;2023-04-01T08:52:27;3.07;;;2.53;;
11865;SDS011;5992;52.744;6.898;2023-04-01T08:55:51;3.20;;;2.90;;
11865;SDS011;5992;52.744;6.898;2023-04-01T08:59:26;2.85;;;2.55;;
11865;SDS011;5992;52.744;6.898;2023-04-01T09:02:52;2.70;;;2.50;;
11865;SDS011;5992;52.744;6.898;2023-04-01T09:06:25;2.67;;;2.47;;
11865;SDS011;5992;52.744;6.898;2023-04-01T09:13:39;1.90;;;1.60;;
11865;SDS011;5992;52.744;6.898;2023-04-01T09:17:09;1.30;;;1.30;;
11865;SDS011;5992;52.744;6.898;2023-04-01T09:20:42;1.57;;;1.47;;
11865;SDS011;5992;52.744;6.898;2023-04-01T09:24:20;1.60;;;1.50;;
11865;SDS011;5992;52.744;6.898;2023-04-01T09:27:49;1.70;;;1.60;;
11865;SDS011;5992;52.744;6.898;2023-04-01T09:31:17;2.10;;;2.00;;
11865;SDS011;5992;52.744;6.898;2023-04-01T09:34:54;2.40;;;2.30;;
11865;SDS011;5992;52.744;6.898;2023-04-01T09:38:21;2.70;;;2.50;;
11865;SDS011;5992;52.744;6.898;2023-04-01T09:41:47;2.37;;;2.17;;
11865;SDS011;5992;52.744;6.898;2023-04-01T09:45:15;2.77;;;2.60;;
11865;SDS011;5992;52.744;6.898;2023-04-01T09:48:43;2.70;;;2.50;;
11865;SDS011;5992;52.744;6.898;2023-04-01T09:52:09;3.13;;;2.93;;
11865;SDS011;5992;52.744;6.898;2023-04-01T09:55:45;2.90;;;2.70;;
11865;SDS011;5992;52.744;6.898;2023-04-01T10:09:58;3.60;;;3.30;;
11865;SDS011;5992;52.744;6.898;2023-04-01T10:13:30;3.75;;;3.20;;
11865;SDS011;5992;52.744;6.898;2023-04-01T10:17:06;3.40;;;3.15;;
11865;SDS011;5992;52.744;6.898;2023-04-01T10:20:38;2.75;;;2.55;;
11865;SDS011;5992;52.744;6.898;2023-04-01T10:23:57;3.55;;;3.25;;
11865;SDS011;5992;52.744;6.898;2023-04-01T10:34:32;3.30;;;3.10;;
11865;SDS011;5992;52.744;6.898;2023-04-01T10:38:08;3.00;;;2.80;;
11865;SDS011;5992;52.744;6.898;2023-04-01T10:56:14;3.17;;;2.97;;
11865;SDS011;5992;52.744;6.898;2023-04-01T11:03:20;3.10;;;2.90;;
11865;SDS011;5992;52.744;6.898;2023-04-01T11:14:17;3.10;;;2.87;;
11865;SDS011;5992;52.744;6.898;2023-04-01T11:17:57;3.17;;;2.97;;
11865;SDS011;5992;52.744;6.898;2023-04-01T11:25:07;3.50;;;3.20;;
11865;SDS011;5992;52.744;6.898;2023-04-01T11:28:43;3.20;;;3.00;;
11865;SDS011;5992;52.744;6.898;2023-04-01T11:32:10;4.10;;;3.80;;
11865;SDS011;5992;52.744;6.898;2023-04-01T11:35:36;3.60;;;3.30;;
11865;SDS011;5992;52.744;6.898;2023-04-01T11:39:03;3.90;;;3.60;;
11865;SDS011;5992;52.744;6.898;2023-04-01T11:42:30;3.90;;;3.60;;
11865;SDS011;5992;52.744;6.898;2023-04-01T11:45:56;3.90;;;3.60;;
11865;SDS011;5992;52.744;6.898;2023-04-01T11:49:32;4.00;;;3.63;;
11865;SDS011;5992;52.744;6.898;2023-04-01T11:56:39;3.80;;;3.50;;
11865;SDS011;5992;52.744;6.898;2023-04-01T12:00:14;3.45;;;2.85;;
11865;SDS011;5992;52.744;6.898;2023-04-01T12:03:43;2.80;;;2.60;;
11865;SDS011;5992;52.744;6.898;2023-04-01T12:06:58;3.10;;;2.90;;
11865;SDS011;5992;52.744;6.898;2023-04-01T12:10:25;2.67;;;2.47;;
11865;SDS011;5992;52.744;6.898;2023-04-01T12:13:36;2.50;;;2.40;;
11865;SDS011;5992;52.744;6.898;2023-04-01T12:17:02;2.40;;;2.30;;
11865;SDS011;5992;52.744;6.898;2023-04-01T12:20:21;2.35;;;2.25;;
11865;SDS011;5992;52.744;6.898;2023-04-01T12:23:51;2.60;;;2.40;;
11865;SDS011;5992;52.744;6.898;2023-04-01T12:27:13;2.20;;;2.10;;
11865;SDS011;5992;52.744;6.898;2023-04-01T12:30:49;2.10;;;2.00;;
11865;SDS011;5992;52.744;6.898;2023-04-01T12:34:23;2.10;;;2.00;;
11865;SDS011;5992;52.744;6.898;2023-04-01T12:37:48;1.70;;;1.60;;
11865;SDS011;5992;52.744;6.898;2023-04-01T12:41:09;1.90;;;1.80;;
11865;SDS011;5992;52.744;6.898;2023-04-01T12:44:37;2.00;;;1.90;;
11865;SDS011;5992;52.744;6.898;2023-04-01T12:47:53;2.00;;;1.90;;
11865;SDS011;5992;52.744;6.898;2023-04-01T12:51:29;2.23;;;1.90;;
11865;SDS011;5992;52.744;6.898;2023-04-01T13:01:44;1.70;;;1.60;;
11865;SDS011;5992;52.744;6.898;2023-04-01T13:05:20;1.90;;;1.70;;
11865;SDS011;5992;52.744;6.898;2023-04-01T13:08:34;1.83;;;1.73;;
11865;SDS011;5992;52.744;6.898;2023-04-01T13:12:03;1.33;;;1.30;;
11865;SDS011;5992;52.744;6.898;2023-04-01T13:15:20;1.90;;;1.80;;
11865;SDS011;5992;52.744;6.898;2023-04-01T13:18:52;2.05;;;1.95;;
11865;SDS011;5992;52.744;6.898;2023-04-01T13:22:05;1.90;;;1.80;;
11865;SDS011;5992;52.744;6.898;2023-04-01T13:25:32;2.03;;;1.93;;
11865;SDS011;5992;52.744;6.898;2023-04-01T13:28:44;2.00;;;1.90;;
11865;SDS011;5992;52.744;6.898;2023-04-01T13:32:21;2.07;;;1.97;;
11865;SDS011;5992;52.744;6.898;2023-04-01T13:35:39;2.00;;;1.90;;
11865;SDS011;5992;52.744;6.898;2023-04-01T13:39:06;2.07;;;1.97;;
11865;SDS011;5992;52.744;6.898;2023-04-01T13:42:31;2.23;;;2.10;;
11865;SDS011;5992;52.744;6.898;2023-04-01T13:46:07;1.90;;;1.80;;
11865;SDS011;5992;52.744;6.898;2023-04-01T13:52:58;1.95;;;1.85;;
11865;SDS011;5992;52.744;6.898;2023-04-01T13:56:14;1.50;;;1.50;;
11865;SDS011;5992;52.744;6.898;2023-04-01T13:59:58;2.95;;;1.80;;
11865;SDS011;5992;52.744;6.898;2023-04-01T14:03:37;1.80;;;1.70;;
11865;SDS011;5992;52.744;6.898;2023-04-01T14:06:53;1.80;;;1.70;;
11865;SDS011;5992;52.744;6.898;2023-04-01T14:10:21;2.05;;;1.80;;
11865;SDS011;5992;52.744;6.898;2023-04-01T14:13:34;1.90;;;1.80;;
11865;SDS011;5992;52.744;6.898;2023-04-01T14:17:10;1.50;;;1.50;;
11865;SDS011;5992;52.744;6.898;2023-04-01T14:20:25;1.40;;;1.40;;
11865;SDS011;5992;52.744;6.898;2023-04-01T14:23:56;1.95;;;1.85;;
11865;SDS011;5992;52.744;6.898;2023-04-01T14:27:10;1.90;;;1.80;;
11865;SDS011;5992;52.744;6.898;2023-04-01T14:30:36;2.00;;;1.90;;
11865;SDS011;5992;52.744;6.898;2023-04-01T14:33:53;2.20;;;1.90;;
11865;SDS011;5992;52.744;6.898;2023-04-01T14:40:44;2.20;;;2.10;;
11865;SDS011;5992;52.744;6.898;2023-04-01T14:47:30;1.90;;;1.80;;
11865;SDS011;5992;52.744;6.898;2023-04-01T14:50:54;1.93;;;1.83;;
11865;SDS011;5992;52.744;6.898;2023-04-01T14:54:12;2.43;;;2.33;;
11865;SDS011;5992;52.744;6.898;2023-04-01T14:57:37;2.00;;;1.90;;
11865;SDS011;5992;52.744;6.898;2023-04-01T15:00:55;2.75;;;2.65;;
11865;SDS011;5992;52.744;6.898;2023-04-01T15:11:19;2.00;;;1.90;;
11865;SDS011;5992;52.744;6.898;2023-04-01T15:14:35;1.70;;;1.70;;
11865;SDS011;5992;52.744;6.898;2023-04-01T15:18:03;2.10;;;2.00;;
11865;SDS011;5992;52.744;6.898;2023-04-01T15:21:18;1.80;;;1.70;;
11865;SDS011;5992;52.744;6.898;2023-04-01T15:24:46;2.07;;;1.97;;
11865;SDS011;5992;52.744;6.898;2023-04-01T15:28:03;2.20;;;2.10;;
11865;SDS011;5992;52.744;6.898;2023-04-01T15:31:31;1.53;;;1.43;;
11865;SDS011;5992;52.744;6.898;2023-04-01T15:34:44;3.47;;;1.80;;
11865;SDS011;5992;52.744;6.898;2023-04-01T15:38:11;1.70;;;1.60;;
11865;SDS011;5992;52.744;6.898;2023-04-01T15:41:23;1.40;;;1.40;;
11865;SDS011;5992;52.744;6.898;2023-04-01T15:44:50;5.05;;;1.50;;
11865;SDS011;5992;52.744;6.898;2023-04-01T15:48:01;1.50;;;1.50;;
11865;SDS011;5992;52.744;6.898;2023-04-01T15:51:28;1.70;;;1.60;;
11865;SDS011;5992;52.744;6.898;2023-04-01T15:54:54;2.10;;;1.90;;
11865;SDS011;5992;52.744;6.898;2023-04-01T15:58:22;1.20;;;1.20;;
11865;SDS011;5992;52.744;6.898;2023-04-01T16:01:38;1.30;;;1.30;;
11865;SDS011;5992;52.744;6.898;2023-04-01T16:05:02;1.90;;;1.80;;
11865;SDS011;5992;52.744;6.898;2023-04-01T16:08:29;1.87;;;1.40;;
11865;SDS011;5992;52.744;6.898;2023-04-01T16:11:52;1.07;;;1.07;;
11865;SDS011;5992;52.744;6.898;2023-04-01T16:15:08;1.37;;;1.37;;
11865;SDS011;5992;52.744;6.898;2023-04-01T16:18:38;1.03;;;1.03;;
11865;SDS011;5992;52.744;6.898;2023-04-01T16:21:53;1.00;;;1.00;;
11865;SDS011;5992;52.744;6.898;2023-04-01T16:25:19;1.10;;;1.10;;
11865;SDS011;5992;52.744;6.898;2023-04-01T16:28:31;0.90;;;0.90;;
11865;SDS011;5992;52.744;6.898;2023-04-01T16:31:55;1.33;;;1.30;;
11865;SDS011;5992;52.744;6.898;2023-04-01T16:35:20;1.20;;;1.20;;
11865;SDS011;5992;52.744;6.898;2023-04-01T16:38:46;1.20;;;1.20;;
11865;SDS011;5992;52.744;6.898;2023-04-01T16:42:09;1.20;;;1.20;;
11865;SDS011;5992;52.744;6.898;2023-04-01T16:45:30;1.25;;;1.10;;
11865;SDS011;5992;52.744;6.898;2023-04-01T16:48:55;1.55;;;1.50;;
11865;SDS011;5992;52.744;6.898;2023-04-01T16:52:29;2.63;;;2.43;;
11865;SDS011;5992;52.744;6.898;2023-04-01T16:55:40;1.85;;;1.75;;
11865;SDS011;5992;52.744;6.898;2023-04-01T16:59:01;2.30;;;2.20;;
11865;SDS011;5992;52.744;6.898;2023-04-01T17:02:25;2.03;;;1.93;;
11865;SDS011;5992;52.744;6.898;2023-04-01T17:05:51;1.70;;;1.60;;
11865;SDS011;5992;52.744;6.898;2023-04-01T17:09:07;1.65;;;1.55;;
11865;SDS011;5992;52.744;6.898;2023-04-01T17:12:32;1.70;;;1.60;;
11865;SDS011;5992;52.744;6.898;2023-04-01T17:15:49;1.93;;;1.83;;
11865;SDS011;5992;52.744;6.898;2023-04-01T17:19:20;2.10;;;1.90;;
11865;SDS011;5992;52.744;6.898;2023-04-01T17:22:34;2.00;;;1.90;;
11865;SDS011;5992;52.744;6.898;2023-04-01T17:26:02;2.23;;;2.03;;
11865;SDS011;5992;52.744;6.898;2023-04-01T17:29:15;4.00;;;2.23;;
11865;SDS011;5992;52.744;6.898;2023-04-01T17:32:40;2.00;;;1.90;;
11865;SDS011;5992;52.744;6.898;2023-04-01T17:35:54;2.40;;;2.20;;
11865;SDS011;5992;52.744;6.898;2023-04-01T17:39:24;1.97;;;1.80;;
11865;SDS011;5992;52.744;6.898;2023-04-01T17:42:39;2.43;;;2.23;;
11865;SDS011;5992;52.744;6.898;2023-04-01T17:46:04;2.70;;;2.50;;
11865;SDS011;5992;52.744;6.898;2023-04-01T17:49:21;2.53;;;2.40;;
11865;SDS011;5992;52.744;6.898;2023-04-01T17:52:44;2.43;;;2.30;;
11865;SDS011;5992;52.744;6.898;2023-04-01T17:56:03;3.00;;;2.80;;
11865;SDS011;5992;52.744;6.898;2023-04-01T17:59:34;3.00;;;2.40;;
11865;SDS011;5992;52.744;6.898;2023-04-01T18:02:47;2.90;;;2.70;;
11865;SDS011;5992;52.744;6.898;2023-04-01T18:06:11;2.55;;;2.40;;
11865;SDS011;5992;52.744;6.898;2023-04-01T18:09:25;2.77;;;2.57;;
11865;SDS011;5992;52.744;6.898;2023-04-01T18:12:58;2.70;;;2.50;;
11865;SDS011;5992;52.744;6.898;2023-04-01T18:16:17;2.97;;;2.73;;
11865;SDS011;5992;52.744;6.898;2023-04-01T18:19:44;3.25;;;2.90;;
11865;SDS011;5992;52.744;6.898;2023-04-01T18:22:56;4.23;;;2.70;;
11865;SDS011;5992;52.744;6.898;2023-04-01T18:26:20;2.90;;;2.70;;
11865;SDS011;5992;52.744;6.898;2023-04-01T18:29:34;2.65;;;2.45;;
11865;SDS011;5992;52.744;6.898;2023-04-01T18:33:01;3.90;;;3.13;;
11865;SDS011;5992;52.744;6.898;2023-04-01T18:36:15;3.05;;;2.70;;
11865;SDS011;5992;52.744;6.898;2023-04-01T18:39:39;2.90;;;2.70;;
11865;SDS011;5992;52.744;6.898;2023-04-01T18:42:53;3.23;;;3.03;;
11865;SDS011;5992;52.744;6.898;2023-04-01T18:46:18;3.97;;;3.00;;
11865;SDS011;5992;52.744;6.898;2023-04-01T18:49:39;3.60;;;3.30;;
11865;SDS011;5992;52.744;6.898;2023-04-01T18:52:59;4.15;;;3.75;;
11865;SDS011;5992;52.744;6.898;2023-04-01T18:56:11;3.60;;;3.30;;
11865;SDS011;5992;52.744;6.898;2023-04-01T18:59:36;3.30;;;3.00;;
11865;SDS011;5992;52.744;6.898;2023-04-01T19:02:52;3.60;;;3.40;;
11865;SDS011;5992;52.744;6.898;2023-04-01T19:06:21;4.03;;;3.73;;
11865;SDS011;5992;52.744;6.898;2023-04-01T19:09:42;3.35;;;3.05;;
11865;SDS011;5992;52.744;6.898;2023-04-01T19:13:09;3.30;;;3.00;;
11865;SDS011;5992;52.744;6.898;2023-04-01T19:16:24;2.85;;;2.65;;
11865;SDS011;5992;52.744;6.898;2023-04-01T19:19:49;4.37;;;3.73;;
11865;SDS011;5992;52.744;6.898;2023-04-01T19:23:20;3.90;;;3.50;;
11865;SDS011;5992;52.744;6.898;2023-04-01T19:26:48;3.70;;;3.40;;
11865;SDS011;5992;52.744;6.898;2023-04-01T19:30:10;3.83;;;3.50;;
11865;SDS011;5992;52.744;6.898;2023-04-01T19:33:37;3.85;;;3.50;;
11865;SDS011;5992;52.744;6.898;2023-04-01T19:36:49;4.23;;;3.40;;
11865;SDS011;5992;52.744;6.898;2023-04-01T19:40:22;3.67;;;3.40;;
11865;SDS011;5992;52.744;6.898;2023-04-01T19:43:38;3.80;;;3.50;;
11865;SDS011;5992;52.744;6.898;2023-04-01T19:47:08;4.90;;;2.83;;
11865;SDS011;5992;52.744;6.898;2023-04-01T19:50:22;3.50;;;3.20;;
11865;SDS011;5992;52.744;6.898;2023-04-01T19:53:48;4.15;;;3.55;;
11865;SDS011;5992;52.744;6.898;2023-04-01T19:57:03;4.33;;;3.53;;
11865;SDS011;5992;52.744;6.898;2023-04-01T20:00:28;3.43;;;3.13;;
11865;SDS011;5992;52.744;6.898;2023-04-01T20:03:53;4.70;;;3.93;;
11865;SDS011;5992;52.744;6.898;2023-04-01T20:07:04;3.93;;;3.63;;
11865;SDS011;5992;52.744;6.898;2023-04-01T20:10:30;4.80;;;3.90;;
11865;SDS011;5992;52.744;6.898;2023-04-01T20:13:46;3.90;;;3.55;;
11865;SDS011;5992;52.744;6.898;2023-04-01T20:17:15;3.75;;;3.45;;
11865;SDS011;5992;52.744;6.898;2023-04-01T20:20:26;3.80;;;3.50;;
11865;SDS011;5992;52.744;6.898;2023-04-01T20:23:51;4.37;;;3.27;;
11865;SDS011;5992;52.744;6.898;2023-04-01T20:27:03;4.13;;;3.73;;
11865;SDS011;5992;52.744;6.898;2023-04-01T20:30:41;4.60;;;3.65;;
11865;SDS011;5992;52.744;6.898;2023-04-01T20:34:04;4.00;;;3.60;;
11865;SDS011;5992;52.744;6.898;2023-04-01T20:37:32;4.27;;;3.87;;
11865;SDS011;5992;52.744;6.898;2023-04-01T20:40:44;4.20;;;3.77;;
11865;SDS011;5992;52.744;6.898;2023-04-01T20:44:09;3.83;;;3.53;;
11865;SDS011;5992;52.744;6.898;2023-04-01T20:47:24;4.80;;;3.93;;
11865;SDS011;5992;52.744;6.898;2023-04-01T20:50:48;5.17;;;3.77;;
11865;SDS011;5992;52.744;6.898;2023-04-01T20:54:04;5.67;;;3.80;;
11865;SDS011;5992;52.744;6.898;2023-04-01T20:57:31;4.60;;;3.73;;
11865;SDS011;5992;52.744;6.898;2023-04-01T21:00:46;4.40;;;4.00;;
11865;SDS011;5992;52.744;6.898;2023-04-01T21:04:17;4.57;;;3.67;;
11865;SDS011;5992;52.744;6.898;2023-04-01T21:07:28;3.63;;;3.13;;
11865;SDS011;5992;52.744;6.898;2023-04-01T21:10:57;4.87;;;3.97;;
11865;SDS011;5992;52.744;6.898;2023-04-01T21:14:28;7.77;;;4.07;;
11865;SDS011;5992;52.744;6.898;2023-04-01T21:17:58;5.53;;;4.27;;
11865;SDS011;5992;52.744;6.898;2023-04-01T21:21:19;4.97;;;4.50;;
11865;SDS011;5992;52.744;6.898;2023-04-01T21:24:49;4.90;;;4.23;;
11865;SDS011;5992;52.744;6.898;2023-04-01T21:31:36;4.97;;;4.10;;
11865;SDS011;5992;52.744;6.898;2023-04-01T21:34:52;6.60;;;4.40;;
11865;SDS011;5992;52.744;6.898;2023-04-01T21:38:23;5.40;;;4.83;;
11865;SDS011;5992;52.744;6.898;2023-04-01T21:41:47;6.13;;;4.90;;
11865;SDS011;5992;52.744;6.898;2023-04-01T21:45:14;4.60;;;4.10;;
11865;SDS011;5992;52.744;6.898;2023-04-01T21:48:34;5.47;;;4.40;;
11865;SDS011;5992;52.744;6.898;2023-04-01T21:52:05;4.30;;;3.87;;
11865;SDS011;5992;52.744;6.898;2023-04-01T21:55:31;4.63;;;4.23;;
11865;SDS011;5992;52.744;6.898;2023-04-01T22:02:32;4.10;;;3.70;;
11865;SDS011;5992;52.744;6.898;2023-04-01T22:06:04;6.23;;;4.10;;
11865;SDS011;5992;52.744;6.898;2023-04-01T22:09:18;6.33;;;4.57;;